createdAt,value
2023-04-14T00:00:24.694Z,8.02
2023-04-14T00:02:52.416Z,7.95
2023-04-14T00:05:20.617Z,7.86
2023-04-14T00:07:48.330Z,7.77
2023-04-14T00:10:16.256Z,7.72
2023-04-14T00:12:43.928Z,7.60
2023-04-14T00:15:12.305Z,7.45
2023-04-14T00:17:41.344Z,7.47
2023-04-14T00:20:09.994Z,7.38
2023-04-14T00:22:37.753Z,7.30
2023-04-14T00:25:06.529Z,7.35
2023-04-14T00:27:34.186Z,7.33
2023-04-14T00:30:01.931Z,7.42
2023-04-14T00:32:29.705Z,7.45
2023-04-14T00:35:00.211Z,7.43
2023-04-14T00:37:27.967Z,7.46
2023-04-14T00:39:55.709Z,7.48
2023-04-14T00:42:23.690Z,7.53
2023-04-14T00:44:51.474Z,7.52
2023-04-14T00:47:19.343Z,7.48
2023-04-14T00:49:47.059Z,7.42
2023-04-14T00:52:16.189Z,7.44
2023-04-14T00:54:44.002Z,7.36
2023-04-14T00:57:11.732Z,7.34
2023-04-14T00:59:39.436Z,7.35
2023-04-14T01:02:07.215Z,7.36
2023-04-14T01:04:49.586Z,7.24
2023-04-14T01:07:23.606Z,7.25
2023-04-14T01:09:51.446Z,7.16
2023-04-14T01:12:24.790Z,7.23
2023-04-14T01:14:58.312Z,7.20
2023-04-14T01:17:33.934Z,7.19
2023-04-14T01:20:10.211Z,7.20
2023-04-14T01:22:50.952Z,7.24
2023-04-14T01:26:09.367Z,7.34
2023-04-14T01:28:50.330Z,7.46
2023-04-14T01:31:23.608Z,7.49
2023-04-14T01:33:56.282Z,7.62
2023-04-14T01:36:28.867Z,7.71
2023-04-14T01:38:58.150Z,7.78
2023-04-14T01:41:28.614Z,7.43
2023-04-14T01:43:57.274Z,7.56
2023-04-14T01:46:26.380Z,7.57
2023-04-14T01:48:54.576Z,7.68
2023-04-14T01:51:23.318Z,7.74
2023-04-14T01:53:51.949Z,7.85
2023-04-14T01:56:20.907Z,7.70
2023-04-14T01:58:49.439Z,7.75
2023-04-14T02:01:18.098Z,7.86
2023-04-14T02:03:47.857Z,7.83
2023-04-14T02:06:16.006Z,7.77
2023-04-14T02:08:44.305Z,7.49
2023-04-14T02:11:14.445Z,7.60
2023-04-14T02:13:42.860Z,7.68
2023-04-14T02:16:11.721Z,7.81
2023-04-14T02:18:41.491Z,7.85
2023-04-14T02:21:11.213Z,7.98
2023-04-14T02:23:38.963Z,7.96
2023-04-14T02:26:13.443Z,8.03
2023-04-14T02:28:47.526Z,8.01
2023-04-14T02:31:20.232Z,7.97
2023-04-14T02:33:49.564Z,7.98
2023-04-14T02:36:21.588Z,7.95
2023-04-14T02:38:52.708Z,7.87
2023-04-14T02:41:24.775Z,7.87
2023-04-14T02:44:02.558Z,7.66
2023-04-14T02:46:34.709Z,7.68
2023-04-14T02:49:04.313Z,7.35
2023-04-14T02:51:34.056Z,7.39
2023-04-14T02:54:01.785Z,7.46
2023-04-14T02:56:29.594Z,7.36
2023-04-14T02:58:57.927Z,7.32
2023-04-14T03:01:26.435Z,7.31
2023-04-14T03:03:55.281Z,7.24
2023-04-14T03:06:23.934Z,7.23
2023-04-14T03:08:53.379Z,7.18
2023-04-14T03:11:22.632Z,7.11
2023-04-14T03:13:51.674Z,7.03
2023-04-14T03:16:20.342Z,7.07
2023-04-14T03:18:48.683Z,7.00
2023-04-14T03:21:18.590Z,6.89
2023-04-14T03:23:48.497Z,6.93
2023-04-14T03:26:20.162Z,6.87
2023-04-14T03:28:48.492Z,6.86
2023-04-14T03:31:18.996Z,6.73
2023-04-14T03:33:48.283Z,6.44
2023-04-14T03:36:17.394Z,6.50
2023-04-14T03:38:45.486Z,6.50
2023-04-14T03:41:13.206Z,6.49
2023-04-14T03:43:42.521Z,6.53
2023-04-14T03:46:11.111Z,6.53
2023-04-14T03:48:42.286Z,6.48
2023-04-14T03:51:10.800Z,6.47
2023-04-14T03:53:40.823Z,6.40
2023-04-14T03:56:09.793Z,6.30
2023-04-14T03:58:37.745Z,6.26
2023-04-14T04:01:07.955Z,6.23
2023-04-14T04:03:37.028Z,6.07
2023-04-14T04:06:05.290Z,5.96
2023-04-14T04:08:34.374Z,5.97
2023-04-14T04:11:02.816Z,5.70
2023-04-14T04:13:30.813Z,5.69
2023-04-14T04:15:59.799Z,5.76
2023-04-14T04:18:29.103Z,5.87
2023-04-14T04:20:58.923Z,5.83
2023-04-14T04:23:27.686Z,5.92
2023-04-14T04:25:56.865Z,5.91
2023-04-14T04:28:24.640Z,5.80
2023-04-14T04:30:54.052Z,5.85
2023-04-14T04:33:22.575Z,5.84
2023-04-14T04:35:52.718Z,5.80
2023-04-14T04:38:20.516Z,5.60
2023-04-14T04:40:48.261Z,5.79
2023-04-14T04:43:17.934Z,5.94
2023-04-14T04:45:53.294Z,5.92
2023-04-14T04:48:21.026Z,5.82
2023-04-14T04:50:48.790Z,6.04
2023-04-14T04:53:17.782Z,6.18
2023-04-14T04:55:45.509Z,6.17
2023-04-14T04:58:13.241Z,6.16
2023-04-14T05:00:41.282Z,6.32
2023-04-14T05:03:09.028Z,6.50
2023-04-14T05:05:37.467Z,6.69
2023-04-14T05:08:05.414Z,6.97
2023-04-14T05:10:37.084Z,6.95
2023-04-14T05:13:04.837Z,7.35
2023-04-14T05:15:32.624Z,7.52
2023-04-14T05:18:01.624Z,7.41
2023-04-14T05:20:29.477Z,7.52
2023-04-14T05:22:57.216Z,7.48
2023-04-14T05:25:25.033Z,7.72
2023-04-14T05:27:54.153Z,7.78
2023-04-14T05:30:21.936Z,8.09
2023-04-14T05:32:49.714Z,8.28
2023-04-14T05:35:17.590Z,8.59
2023-04-14T05:37:45.438Z,8.70
2023-04-14T05:40:13.969Z,8.84
2023-04-14T05:42:41.913Z,9.23
2023-04-14T05:45:11.888Z,9.28
2023-04-14T05:47:40.762Z,9.56
2023-04-14T05:50:09.500Z,9.26
2023-04-14T05:52:37.222Z,9.02
2023-04-14T05:55:05.376Z,8.97
2023-04-14T05:57:33.103Z,9.03
2023-04-14T06:00:00.872Z,9.26
2023-04-14T06:02:30.059Z,9.42
2023-04-14T06:04:59.770Z,9.53
2023-04-14T06:07:27.657Z,9.82
2023-04-14T06:09:55.744Z,10.10
2023-04-14T06:12:23.477Z,10.27
2023-04-14T06:14:51.294Z,10.84
2023-04-14T06:17:19.203Z,11.56
2023-04-14T06:19:49.160Z,11.98
2023-04-14T06:22:19.350Z,12.32
2023-04-14T06:24:47.153Z,12.68
2023-04-14T06:27:15.111Z,12.92
2023-04-14T06:29:42.912Z,12.89
2023-04-14T06:32:10.640Z,13.04
2023-04-14T06:34:38.469Z,13.36
2023-04-14T06:37:07.574Z,13.33
2023-04-14T06:39:35.422Z,12.90
2023-04-14T06:42:03.177Z,12.39
2023-04-14T06:44:30.866Z,12.44
2023-04-14T06:46:59.238Z,12.35
2023-04-14T06:49:26.918Z,12.22
2023-04-14T06:51:54.673Z,12.15
2023-04-14T06:54:23.761Z,11.88
2023-04-14T06:56:51.487Z,11.62
2023-04-14T06:59:21.115Z,11.61
2023-04-14T07:01:48.995Z,11.71
2023-04-14T07:04:19.359Z,11.51
2023-04-14T07:06:47.332Z,11.42
2023-04-14T07:09:15.116Z,11.44
2023-04-14T07:11:45.586Z,11.58
2023-04-14T07:14:13.368Z,11.71
2023-04-14T07:16:41.140Z,11.66
2023-04-14T07:19:08.876Z,11.71
2023-04-14T07:21:37.570Z,11.70
2023-04-14T07:24:05.580Z,11.61
2023-04-14T07:26:33.326Z,11.55
2023-04-14T07:29:02.520Z,11.85
2023-04-14T07:31:31.341Z,12.05
2023-04-14T07:33:59.288Z,11.97
2023-04-14T07:36:27.956Z,12.07
2023-04-14T07:38:55.640Z,12.03
2023-04-14T07:41:23.412Z,12.13
2023-04-14T07:43:52.379Z,12.27
2023-04-14T07:46:21.576Z,12.21
2023-04-14T07:48:49.350Z,12.13
2023-04-14T07:51:17.386Z,12.33
2023-04-14T07:53:45.189Z,12.54
2023-04-14T07:56:13.155Z,12.69
2023-04-14T07:58:41.272Z,12.76
2023-04-14T08:01:09.092Z,12.77
2023-04-14T08:03:38.457Z,12.86
2023-04-14T08:06:07.562Z,12.66
2023-04-14T08:08:35.381Z,12.83
2023-04-14T08:11:03.071Z,12.62
2023-04-14T08:13:30.772Z,12.80
2023-04-14T08:15:58.543Z,13.03
2023-04-14T08:18:26.496Z,13.05
2023-04-14T08:20:55.672Z,12.60
2023-04-14T08:23:23.606Z,12.41
2023-04-14T08:25:51.524Z,12.80
2023-04-14T08:28:19.405Z,12.97
2023-04-14T08:30:47.797Z,13.25
2023-04-14T08:33:15.843Z,12.44
2023-04-14T08:35:44.006Z,11.71
2023-04-14T08:38:13.287Z,12.27
2023-04-14T08:40:42.131Z,12.97
2023-04-14T08:43:12.432Z,13.00
2023-04-14T08:45:43.174Z,13.44
2023-04-14T08:48:13.245Z,13.58
2023-04-14T08:50:59.258Z,12.94
2023-04-14T08:53:28.920Z,13.45
2023-04-14T08:55:58.404Z,13.66
2023-04-14T08:58:26.428Z,13.50
2023-04-14T09:00:54.664Z,13.50
2023-04-14T09:03:22.872Z,13.73
2023-04-14T09:05:51.808Z,13.65
2023-04-14T09:08:20.814Z,13.84
2023-04-14T09:10:50.074Z,13.70
2023-04-14T09:13:19.450Z,13.77
2023-04-14T09:15:47.151Z,13.74
2023-04-14T09:18:14.910Z,13.27
2023-04-14T09:20:42.833Z,13.67
2023-04-14T09:23:11.105Z,13.72
2023-04-14T09:25:39.356Z,13.81
2023-04-14T09:28:08.764Z,14.11
2023-04-14T09:30:36.661Z,13.79
2023-04-14T09:33:06.637Z,13.99
2023-04-14T09:35:44.665Z,14.14
2023-04-14T09:38:12.410Z,14.31
2023-04-14T09:40:43.294Z,14.51
2023-04-14T09:43:23.979Z,14.46
2023-04-14T09:45:51.886Z,14.09
2023-04-14T09:48:20.170Z,13.76
2023-04-14T09:50:58.517Z,13.70
2023-04-14T09:53:28.144Z,13.96
2023-04-14T09:55:55.920Z,13.76
2023-04-14T09:58:27.788Z,14.21
2023-04-14T10:00:57.266Z,14.54
2023-04-14T10:03:36.024Z,14.80
2023-04-14T10:06:07.367Z,14.86
2023-04-14T10:08:37.186Z,15.02
2023-04-14T10:11:19.064Z,14.61
2023-04-14T10:13:49.271Z,14.54
2023-04-14T10:16:17.442Z,14.83
2023-04-14T10:18:45.344Z,14.94
2023-04-14T10:21:13.793Z,15.30
2023-04-14T10:23:42.840Z,15.41
2023-04-14T10:26:11.933Z,15.46
2023-04-14T10:28:41.938Z,15.63
2023-04-14T10:31:16.073Z,15.66
2023-04-14T10:33:44.007Z,15.54
2023-04-14T10:36:11.784Z,15.42
2023-04-14T10:38:43.954Z,15.57
2023-04-14T10:41:12.403Z,15.68
2023-04-14T10:43:40.696Z,16.07
2023-04-14T10:46:09.707Z,16.02
2023-04-14T10:48:40.168Z,16.17
2023-04-14T10:51:09.712Z,16.24
2023-04-14T10:53:39.688Z,16.62
2023-04-14T10:56:07.522Z,16.70
2023-04-14T10:58:37.754Z,16.84
2023-04-14T11:01:26.849Z,17.11
2023-04-14T11:03:56.319Z,17.19
2023-04-14T11:06:55.648Z,16.79
2023-04-14T11:09:25.399Z,16.43
2023-04-14T11:11:53.146Z,16.59
2023-04-14T11:14:27.340Z,17.17
2023-04-14T11:17:03.767Z,17.16
2023-04-14T11:19:34.326Z,17.22
2023-04-14T11:22:02.026Z,17.25
2023-04-14T11:24:30.099Z,17.28
2023-04-14T11:26:58.443Z,17.07
2023-04-14T11:29:26.184Z,17.04
2023-04-14T11:32:04.332Z,17.04
2023-04-14T11:34:34.372Z,17.33
2023-04-14T11:37:05.089Z,17.28
2023-04-14T11:39:33.079Z,17.76
2023-04-14T11:42:01.285Z,17.91
2023-04-14T11:44:29.406Z,17.78
2023-04-14T11:46:57.111Z,17.78
2023-04-14T11:49:36.222Z,17.51
2023-04-14T11:52:08.407Z,17.59
2023-04-14T11:54:37.688Z,17.35
2023-04-14T11:57:11.072Z,17.56
2023-04-14T11:59:43.545Z,17.49
2023-04-14T12:02:17.234Z,17.55
2023-04-14T12:04:48.612Z,18.00
2023-04-14T12:07:19.188Z,17.94
2023-04-14T12:09:48.891Z,17.86
2023-04-14T12:12:17.906Z,18.06
2023-04-14T12:14:46.734Z,17.82
2023-04-14T12:17:15.415Z,18.20
2023-04-14T12:19:43.323Z,18.40
2023-04-14T12:22:12.483Z,18.77
2023-04-14T12:24:41.904Z,18.73
2023-04-14T12:27:10.179Z,18.44
2023-04-14T12:29:38.175Z,18.19
2023-04-14T12:32:11.840Z,18.74
2023-04-14T12:34:39.974Z,19.28
2023-04-14T12:37:09.750Z,19.16
2023-04-14T12:39:52.810Z,18.57
2023-04-14T12:42:20.808Z,18.27
2023-04-14T12:44:58.975Z,18.29
2023-04-14T12:47:30.909Z,17.93
2023-04-14T12:49:59.522Z,17.85
2023-04-14T12:52:34.082Z,17.93
2023-04-14T12:55:04.842Z,18.44
2023-04-14T12:57:32.743Z,18.43
2023-04-14T13:00:00.918Z,18.47
2023-04-14T13:02:29.975Z,18.79
2023-04-14T13:04:57.970Z,19.25
2023-04-14T13:07:25.670Z,19.17
2023-04-14T13:09:53.679Z,19.14
2023-04-14T13:12:22.785Z,19.16
2023-04-14T13:14:50.690Z,18.96
2023-04-14T13:17:18.522Z,18.37
2023-04-14T13:19:46.361Z,17.31
2023-04-14T13:22:14.839Z,17.79
2023-04-14T13:24:42.572Z,17.97
2023-04-14T13:27:11.573Z,17.93
2023-04-14T13:29:42.212Z,18.15
2023-04-14T13:32:11.069Z,18.31
2023-04-14T13:34:39.309Z,18.36
2023-04-14T13:37:07.312Z,18.29
2023-04-14T13:39:35.037Z,18.01
2023-04-14T13:42:03.142Z,17.41
2023-04-14T13:44:32.487Z,17.84
2023-04-14T13:47:02.752Z,16.96
2023-04-14T13:49:31.353Z,17.15
2023-04-14T13:51:59.066Z,17.71
2023-04-14T13:54:27.200Z,17.66
2023-04-14T13:56:54.985Z,17.72
2023-04-14T13:59:22.995Z,18.23
2023-04-14T14:01:51.069Z,18.59
2023-04-14T14:04:20.428Z,18.90
2023-04-14T14:06:48.308Z,19.10
2023-04-14T14:09:16.352Z,19.10
2023-04-14T14:11:46.156Z,18.88
2023-04-14T14:14:14.953Z,18.41
2023-04-14T14:16:42.943Z,18.82
2023-04-14T14:19:15.024Z,18.72
2023-04-14T14:21:44.852Z,18.96
2023-04-14T14:24:14.000Z,18.92
2023-04-14T14:26:41.820Z,18.76
2023-04-14T14:29:09.514Z,19.06
2023-04-14T14:31:37.327Z,19.44
2023-04-14T14:34:05.176Z,19.53
2023-04-14T14:36:33.206Z,19.03
2023-04-14T14:39:02.519Z,19.10
2023-04-14T14:41:30.317Z,18.87
2023-04-14T14:43:59.212Z,18.41
2023-04-14T14:46:27.962Z,18.65
2023-04-14T14:48:55.947Z,18.44
2023-04-14T14:51:24.173Z,18.37
2023-04-14T14:53:54.226Z,18.09
2023-04-14T14:56:28.464Z,18.22
2023-04-14T14:58:57.324Z,18.20
2023-04-14T15:01:25.322Z,18.23
2023-04-14T15:03:54.804Z,17.94
2023-04-14T15:06:22.887Z,18.12
2023-04-14T15:08:50.615Z,17.91
2023-04-14T15:11:18.385Z,18.04
2023-04-14T15:13:47.410Z,18.53
2023-04-14T15:16:15.171Z,18.57
2023-04-14T15:18:43.049Z,18.47
2023-04-14T15:21:10.820Z,18.62
2023-04-14T15:23:41.236Z,18.51
2023-04-14T15:26:08.918Z,18.32
2023-04-14T15:28:36.839Z,18.25
2023-04-14T15:31:06.347Z,18.26
2023-04-14T15:33:34.183Z,18.31
2023-04-14T15:36:02.005Z,18.16
2023-04-14T15:38:29.795Z,18.24
2023-04-14T15:40:57.960Z,18.51
2023-04-14T15:43:27.831Z,18.60
2023-04-14T15:45:55.764Z,18.61
2023-04-14T15:48:24.948Z,18.55
2023-04-14T15:50:52.665Z,18.59
2023-04-14T15:53:20.415Z,18.64
2023-04-14T15:55:50.146Z,18.82
2023-04-14T15:58:17.927Z,19.00
2023-04-14T16:00:45.795Z,17.87
2023-04-14T16:03:14.754Z,18.26
2023-04-14T16:05:43.983Z,18.65
2023-04-14T16:08:11.657Z,18.44
2023-04-14T16:10:42.736Z,18.22
2023-04-14T16:13:11.066Z,18.40
2023-04-14T16:15:38.773Z,18.52
2023-04-14T16:18:06.539Z,18.22
2023-04-14T16:20:34.311Z,17.74
2023-04-14T16:23:03.345Z,17.80
2023-04-14T16:25:31.274Z,17.83
2023-04-14T16:27:59.060Z,17.82
2023-04-14T16:30:26.832Z,18.27
2023-04-14T16:32:54.575Z,17.29
2023-04-14T16:35:22.385Z,17.11
2023-04-14T16:37:50.142Z,17.09
2023-04-14T16:40:19.491Z,16.56
2023-04-14T16:42:47.806Z,16.39
2023-04-14T16:45:15.562Z,16.23
2023-04-14T16:47:43.284Z,15.82
2023-04-14T16:50:11.680Z,16.12
2023-04-14T16:52:39.388Z,15.95
2023-04-14T16:55:07.800Z,15.69
2023-04-14T16:57:36.796Z,15.64
2023-04-14T17:00:05.036Z,15.85
2023-04-14T17:02:32.892Z,15.79
2023-04-14T17:05:01.529Z,15.60
2023-04-14T17:07:29.372Z,15.72
2023-04-14T17:09:57.681Z,15.97
2023-04-14T17:12:25.632Z,16.14
2023-04-14T17:14:54.734Z,15.89
2023-04-14T17:17:22.533Z,15.76
2023-04-14T17:19:50.424Z,15.70
2023-04-14T17:22:18.138Z,15.98
2023-04-14T17:24:46.143Z,15.76
2023-04-14T17:27:13.917Z,15.70
2023-04-14T17:29:42.002Z,15.89
2023-04-14T17:32:12.280Z,15.70
2023-04-14T17:34:40.218Z,15.38
2023-04-14T17:37:08.020Z,15.51
2023-04-14T17:39:35.893Z,15.45
2023-04-14T17:42:03.702Z,15.43
2023-04-14T17:44:33.458Z,15.68
2023-04-14T17:47:02.983Z,15.67
2023-04-14T17:49:33.775Z,15.55
2023-04-14T17:52:01.435Z,15.19
2023-04-14T17:54:30.181Z,15.47
2023-04-14T17:56:58.361Z,15.04
2023-04-14T17:59:26.004Z,15.06
2023-04-14T18:01:53.800Z,14.81
2023-04-14T18:04:22.146Z,14.64
2023-04-14T18:06:51.284Z,14.87
2023-04-14T18:09:18.965Z,14.44
2023-04-14T18:11:46.649Z,14.75
2023-04-14T18:14:14.295Z,14.71
2023-04-14T18:16:42.250Z,14.43
2023-04-14T18:19:10.122Z,14.42
2023-04-14T18:21:38.150Z,14.21
2023-04-14T18:26:38.415Z,14.64
2023-04-14T18:29:06.751Z,14.53
2023-04-14T18:31:35.315Z,14.02
2023-04-14T18:34:05.011Z,14.03
2023-04-14T18:36:33.438Z,14.15
2023-04-14T18:39:01.553Z,14.15
2023-04-14T18:41:30.759Z,14.07
2023-04-14T18:43:58.627Z,14.13
2023-04-14T18:46:27.509Z,14.10
2023-04-14T18:48:55.399Z,13.98
2023-04-14T18:51:23.185Z,13.73
2023-04-14T18:53:50.885Z,13.68
2023-04-14T18:56:18.580Z,13.59
2023-04-14T18:58:47.578Z,13.43
2023-04-14T19:01:15.341Z,13.45
2023-04-14T19:03:43.203Z,13.36
2023-04-14T19:06:10.957Z,13.40
2023-04-14T19:08:38.711Z,13.41
2023-04-14T19:11:06.563Z,13.27
2023-04-14T19:13:34.743Z,13.11
2023-04-14T19:16:09.115Z,12.92
2023-04-14T19:18:36.874Z,13.03
2023-04-14T19:21:04.782Z,12.98
2023-04-14T19:23:32.461Z,12.88
2023-04-14T19:26:00.328Z,12.77
2023-04-14T19:28:28.258Z,12.58
2023-04-14T19:30:56.296Z,12.58
2023-04-14T19:33:26.923Z,12.79
2023-04-14T19:35:54.786Z,12.72
2023-04-14T19:38:22.562Z,12.83
2023-04-14T19:40:50.759Z,12.78
2023-04-14T19:43:19.111Z,12.68
2023-04-14T19:45:51.384Z,12.69
2023-04-14T19:48:23.571Z,12.53
2023-04-14T19:50:54.808Z,12.32
2023-04-14T19:53:23.324Z,12.32
2023-04-14T19:55:51.452Z,12.30
2023-04-14T19:58:21.508Z,12.22
2023-04-14T20:00:51.046Z,12.31
2023-04-14T20:03:19.261Z,12.33
2023-04-14T20:05:47.111Z,12.33
2023-04-14T20:08:16.348Z,12.33
2023-04-14T20:10:44.015Z,12.21
2023-04-14T20:13:12.105Z,12.06
2023-04-14T20:15:40.496Z,11.93
2023-04-14T20:18:08.837Z,11.95
2023-04-14T20:20:40.204Z,11.82
2023-04-14T20:23:07.897Z,11.94
2023-04-14T20:25:37.197Z,11.85
2023-04-14T20:28:05.028Z,11.81
2023-04-14T20:30:33.064Z,11.74
2023-04-14T20:33:02.683Z,11.93
2023-04-14T20:35:30.470Z,11.89
2023-04-14T20:37:58.409Z,11.86
2023-04-14T20:40:26.214Z,11.96
2023-04-14T20:42:55.503Z,11.86
2023-04-14T20:45:23.245Z,11.94
2023-04-14T20:47:50.958Z,11.90
2023-04-14T20:50:18.875Z,11.61
2023-04-14T20:52:46.669Z,11.72
2023-04-14T20:55:14.755Z,11.61
2023-04-14T20:57:43.137Z,11.91
2023-04-14T21:00:15.739Z,11.97
2023-04-14T21:02:44.373Z,11.98
2023-04-14T21:05:12.749Z,11.83
2023-04-14T21:07:41.971Z,11.65
2023-04-14T21:10:11.391Z,11.82
2023-04-14T21:15:15.889Z,11.85
2023-04-14T21:15:52.315Z,11.69
2023-04-14T21:18:16.590Z,11.68
2023-04-14T21:20:44.503Z,11.66
2023-04-14T21:23:12.331Z,11.61
2023-04-14T21:25:40.134Z,11.39
2023-04-14T21:28:08.107Z,11.35
2023-04-14T21:30:37.685Z,11.22
2023-04-14T21:33:07.742Z,11.32
2023-04-14T21:35:35.630Z,11.13
2023-04-14T21:38:03.577Z,11.07
2023-04-14T21:40:31.327Z,11.18
2023-04-14T21:42:59.022Z,11.17
2023-04-14T21:45:28.310Z,11.15
2023-04-14T21:47:57.871Z,11.25
2023-04-14T21:50:25.618Z,11.13
2023-04-14T21:52:53.350Z,11.09
2023-04-14T21:55:21.056Z,11.16
2023-04-14T21:57:49.969Z,10.90
2023-04-14T22:00:18.488Z,10.83
2023-04-14T22:02:46.530Z,10.99
2023-04-14T22:05:16.213Z,10.91
2023-04-14T22:07:45.465Z,10.93
2023-04-14T22:10:13.177Z,11.01
2023-04-14T22:12:42.183Z,10.72
2023-04-14T22:15:11.050Z,10.79
2023-04-14T22:17:39.708Z,10.75
2023-04-14T22:20:08.326Z,10.80
2023-04-14T22:22:37.567Z,10.53
2023-04-14T22:25:05.692Z,10.65
2023-04-14T22:27:34.391Z,10.47
2023-04-14T22:30:02.536Z,10.73
2023-04-14T22:32:30.403Z,10.42
2023-04-14T22:34:58.414Z,10.56
2023-04-14T22:37:26.689Z,10.59
2023-04-14T22:39:55.829Z,10.63
2023-04-14T22:42:23.511Z,10.53
2023-04-14T22:44:52.929Z,10.60
2023-04-14T22:47:20.698Z,10.52
2023-04-14T22:49:48.413Z,10.28
2023-04-14T22:52:16.111Z,10.24
2023-04-14T22:54:43.788Z,9.96
2023-04-14T22:57:12.817Z,9.90
2023-04-14T22:59:40.518Z,10.05
2023-04-14T23:02:08.345Z,10.27
2023-04-14T23:04:36.728Z,10.11
2023-04-14T23:07:04.693Z,10.27
2023-04-14T23:09:32.458Z,10.05
2023-04-14T23:12:01.275Z,9.69
2023-04-14T23:14:32.326Z,10.10
2023-04-14T23:17:00.750Z,10.00
2023-04-14T23:19:28.538Z,9.97
2023-04-14T23:21:56.877Z,9.90
2023-04-14T23:24:24.505Z,10.03
2023-04-14T23:26:52.330Z,9.73
2023-04-14T23:29:20.054Z,9.85
2023-04-14T23:31:49.293Z,10.04
2023-04-14T23:34:16.909Z,9.64
2023-04-14T23:36:47.033Z,9.56
2023-04-14T23:39:14.773Z,9.72
2023-04-14T23:41:42.602Z,9.70
2023-04-14T23:44:10.307Z,9.48
2023-04-14T23:46:37.989Z,9.44
2023-04-14T23:49:22.053Z,9.61
2023-04-14T23:51:52.756Z,9.23
2023-04-14T23:54:20.490Z,9.31
2023-04-14T23:56:48.492Z,9.21
2023-04-14T23:59:16.519Z,9.38
